createdAt,value
2023-02-14T00:04:01.655Z,80.98
2023-02-14T00:09:03.835Z,81.29
2023-02-14T00:14:24.557Z,81.14
2023-02-14T00:19:26.802Z,80.75
2023-02-14T00:24:29.084Z,80.70
2023-02-14T00:29:32.211Z,80.86
2023-02-14T00:34:36.644Z,81.12
2023-02-14T00:39:39.058Z,81.26
2023-02-14T00:44:41.282Z,81.30
2023-02-14T00:49:43.172Z,81.32
2023-02-14T00:54:45.132Z,81.52
2023-02-14T00:59:49.323Z,81.50
2023-02-14T01:04:51.625Z,81.66
2023-02-14T01:09:54.504Z,81.62
2023-02-14T01:14:56.968Z,81.74
2023-02-14T01:19:59.054Z,81.61
2023-02-14T01:25:01.072Z,81.98
2023-02-14T01:30:06.072Z,81.83
2023-02-14T01:35:09.211Z,81.97
2023-02-14T01:40:12.374Z,82.00
2023-02-14T01:45:20.955Z,81.94
2023-02-14T01:50:24.409Z,81.75
2023-02-14T01:55:29.981Z,81.56
2023-02-14T02:00:50.375Z,81.70
2023-02-14T02:05:56.439Z,81.27
2023-02-14T02:11:00.142Z,81.21
2023-02-14T02:16:20.910Z,80.42
2023-02-14T02:21:58.082Z,79.95
2023-02-14T02:27:17.042Z,79.71
2023-02-14T02:32:34.092Z,79.75
2023-02-14T02:37:55.282Z,80.25
2023-02-14T02:43:18.589Z,79.81
2023-02-14T02:48:22.435Z,79.59
2023-02-14T02:53:29.673Z,78.93
2023-02-14T02:59:00.152Z,78.37
2023-02-14T03:04:25.359Z,77.43
2023-02-14T03:09:27.287Z,77.13
2023-02-14T03:14:45.633Z,77.04
2023-02-14T03:20:15.308Z,76.46
2023-02-14T03:25:43.520Z,77.11
2023-02-14T03:30:59.908Z,78.00
2023-02-14T03:36:03.874Z,77.75
2023-02-14T03:41:09.692Z,77.52
2023-02-14T03:46:19.965Z,77.46
2023-02-14T03:51:24.098Z,77.63
2023-02-14T03:56:42.563Z,77.36
2023-02-14T04:01:44.513Z,77.05
2023-02-14T04:06:47.012Z,76.93
2023-02-14T04:11:50.707Z,77.18
2023-02-14T04:17:11.588Z,77.21
2023-02-14T04:22:13.676Z,77.87
2023-02-14T04:27:15.669Z,78.28
2023-02-14T04:32:20.314Z,78.10
2023-02-14T04:37:22.379Z,78.40
2023-02-14T04:42:24.338Z,78.47
2023-02-14T04:47:26.438Z,78.59
2023-02-14T04:52:30.245Z,78.85
2023-02-14T04:57:32.192Z,78.75
2023-02-14T05:02:34.095Z,79.16
2023-02-14T05:07:36.296Z,79.29
2023-02-14T05:12:38.309Z,79.12
2023-02-14T05:17:40.200Z,79.60
2023-02-14T05:22:42.268Z,79.52
2023-02-14T05:27:44.176Z,79.83
2023-02-14T05:32:46.171Z,80.64
2023-02-14T05:37:48.387Z,81.36
2023-02-14T05:42:52.447Z,80.88
2023-02-14T05:47:54.552Z,80.69
2023-02-14T05:52:56.803Z,81.25
2023-02-14T05:57:58.872Z,81.49
2023-02-14T06:03:01.248Z,81.21
2023-02-14T06:08:03.329Z,80.80
2023-02-14T06:13:08.989Z,82.59
2023-02-14T06:18:11.320Z,80.91
2023-02-14T06:23:13.421Z,81.40
2023-02-14T06:28:15.557Z,80.92
2023-02-14T06:33:17.480Z,80.26
2023-02-14T06:38:19.454Z,79.97
2023-02-14T06:43:21.514Z,82.52
2023-02-14T06:48:23.649Z,79.11
2023-02-14T06:53:25.619Z,79.60
2023-02-14T06:58:27.651Z,80.53
2023-02-14T07:03:29.841Z,80.14
2023-02-14T07:08:33.271Z,79.20
2023-02-14T07:13:35.776Z,79.16
2023-02-14T07:18:38.006Z,78.41
2023-02-14T07:23:40.033Z,79.37
2023-02-14T07:28:44.895Z,77.83
2023-02-14T07:33:47.180Z,79.36
2023-02-14T07:38:49.192Z,80.34
2023-02-14T07:43:51.072Z,77.77
2023-02-14T07:48:53.173Z,77.88
2023-02-14T07:53:55.246Z,76.79
2023-02-14T07:58:57.111Z,76.69
2023-02-14T08:03:59.391Z,76.53
2023-02-14T08:09:01.531Z,76.45
2023-02-14T08:14:04.749Z,76.03
2023-02-14T08:19:08.019Z,76.42
2023-02-14T08:24:10.697Z,75.93
2023-02-14T08:29:12.595Z,76.43
2023-02-14T08:34:15.697Z,75.47
2023-02-14T08:39:17.858Z,76.85
2023-02-14T08:44:20.281Z,74.65
2023-02-14T08:49:22.347Z,75.61
2023-02-14T08:54:24.291Z,75.08
2023-02-14T08:59:26.334Z,74.43
2023-02-14T09:04:28.358Z,74.35
2023-02-14T09:09:30.544Z,74.63
2023-02-14T09:14:39.805Z,74.43
2023-02-14T09:19:42.214Z,78.07
2023-02-14T09:24:44.595Z,74.93
2023-02-14T09:29:46.772Z,75.66
2023-02-14T09:35:07.387Z,73.66
2023-02-14T09:40:10.102Z,73.88
2023-02-14T09:45:15.470Z,73.04
2023-02-14T09:50:23.776Z,72.73
2023-02-14T09:55:35.585Z,72.31
2023-02-14T10:00:48.666Z,72.54
2023-02-14T10:06:22.474Z,71.29
2023-02-14T10:11:25.030Z,69.99
2023-02-14T10:16:39.302Z,67.07
2023-02-14T10:21:47.107Z,67.75
2023-02-14T10:26:50.833Z,67.08
2023-02-14T10:32:02.244Z,67.98
2023-02-14T10:37:35.476Z,67.70
2023-02-14T10:43:01.535Z,68.05
2023-02-14T10:48:16.788Z,68.01
2023-02-14T10:54:00.557Z,67.76
2023-02-14T10:59:22.059Z,67.53
2023-02-14T11:04:25.458Z,64.16
2023-02-14T11:09:27.418Z,65.84
2023-02-14T11:14:32.655Z,63.81
2023-02-14T11:19:37.302Z,63.76
2023-02-14T11:24:42.418Z,65.74
2023-02-14T11:29:52.502Z,65.96
2023-02-14T11:35:14.108Z,65.73
2023-02-14T11:40:31.481Z,64.89
2023-02-14T11:45:38.580Z,64.74
2023-02-14T11:50:42.217Z,64.73
2023-02-14T11:55:44.583Z,63.25
2023-02-14T12:00:53.212Z,61.88
2023-02-14T12:06:00.616Z,62.45
2023-02-14T12:11:05.725Z,63.22
2023-02-14T12:16:24.183Z,63.80
2023-02-14T12:21:48.959Z,63.38
2023-02-14T12:27:21.037Z,64.79
2023-02-14T12:32:28.821Z,62.13
2023-02-14T12:37:41.145Z,61.30
2023-02-14T12:43:27.125Z,60.84
2023-02-14T12:49:01.054Z,60.41
2023-02-14T12:54:09.129Z,60.95
2023-02-14T12:59:29.255Z,62.52
2023-02-14T13:04:54.065Z,63.26
2023-02-14T13:10:05.227Z,61.85
2023-02-14T13:15:30.952Z,62.78
2023-02-14T13:20:53.488Z,60.10
2023-02-14T13:26:04.902Z,59.74
2023-02-14T13:31:07.133Z,59.79
2023-02-14T13:36:12.492Z,60.10
2023-02-14T13:41:15.821Z,59.53
2023-02-14T13:46:49.823Z,59.28
2023-02-14T13:51:57.740Z,59.52
2023-02-14T13:57:23.579Z,59.65
2023-02-14T14:02:30.097Z,60.22
2023-02-14T14:07:33.222Z,60.02
2023-02-14T14:12:35.278Z,59.83
2023-02-14T14:17:44.642Z,60.25
2023-02-14T14:22:48.790Z,60.37
2023-02-14T14:27:50.760Z,62.02
2023-02-14T14:32:52.724Z,60.26
2023-02-14T14:37:56.940Z,60.78
2023-02-14T14:43:23.638Z,58.28
2023-02-14T14:48:33.687Z,59.68
2023-02-14T14:53:42.206Z,62.22
2023-02-14T14:58:44.459Z,61.98
2023-02-14T15:03:46.479Z,61.38
2023-02-14T15:08:49.904Z,61.23
2023-02-14T15:13:57.596Z,62.08
2023-02-14T15:19:01.778Z,64.52
2023-02-14T15:24:04.452Z,62.75
2023-02-14T15:29:07.672Z,62.71
2023-02-14T15:34:10.734Z,60.59
2023-02-14T15:39:14.317Z,60.00
2023-02-14T15:44:21.180Z,60.66
2023-02-14T15:49:30.321Z,60.25
2023-02-14T15:54:38.861Z,60.20
2023-02-14T15:59:42.276Z,60.30
2023-02-14T16:04:44.488Z,59.81
2023-02-14T16:09:46.426Z,60.71
2023-02-14T16:15:03.228Z,59.70
2023-02-14T16:20:30.050Z,60.02
2023-02-14T16:25:32.222Z,60.72
2023-02-14T16:30:34.163Z,60.62
2023-02-14T16:35:36.140Z,60.08
2023-02-14T16:40:38.022Z,60.36
2023-02-14T16:45:41.252Z,60.86
2023-02-14T16:50:43.645Z,61.65
2023-02-14T16:55:45.552Z,60.54
2023-02-14T17:00:47.646Z,61.29
2023-02-14T17:05:49.848Z,61.34
2023-02-14T17:10:52.300Z,60.36
2023-02-14T17:15:56.193Z,61.43
2023-02-14T17:20:59.594Z,62.25
2023-02-14T17:26:06.318Z,61.77
2023-02-14T17:31:08.569Z,62.79
2023-02-14T17:36:12.854Z,62.16
2023-02-14T17:41:22.364Z,62.15
2023-02-14T17:46:24.509Z,62.01
2023-02-14T17:51:26.475Z,63.41
2023-02-14T17:56:28.392Z,63.22
2023-02-14T18:01:34.629Z,63.59
2023-02-14T18:06:37.458Z,64.28
2023-02-14T18:11:40.437Z,65.15
2023-02-14T18:16:44.896Z,66.16
2023-02-14T18:21:47.708Z,66.24
2023-02-14T18:26:49.866Z,66.45
2023-02-14T18:31:52.124Z,65.82
2023-02-14T18:36:55.070Z,67.09
2023-02-14T18:42:00.021Z,66.62
2023-02-14T18:47:02.809Z,67.80
2023-02-14T18:52:07.010Z,67.51
2023-02-14T18:57:09.086Z,68.74
2023-02-14T19:02:12.104Z,67.89
2023-02-14T19:07:14.272Z,68.54
2023-02-14T19:12:16.348Z,70.11
2023-02-14T19:17:18.324Z,69.04
2023-02-14T19:22:20.590Z,69.35
2023-02-14T19:27:24.047Z,69.64
2023-02-14T19:32:26.596Z,70.02
2023-02-14T19:37:28.548Z,69.76
2023-02-14T19:42:30.470Z,69.89
2023-02-14T19:47:46.314Z,70.34
2023-02-14T19:52:49.339Z,70.32
2023-02-14T19:57:51.320Z,70.90
2023-02-14T20:02:53.397Z,70.44
2023-02-14T20:07:55.536Z,70.96
2023-02-14T20:12:57.470Z,71.32
2023-02-14T20:17:59.468Z,71.55
2023-02-14T20:23:02.524Z,72.54
2023-02-14T20:28:05.088Z,71.99
2023-02-14T20:33:07.264Z,71.94
2023-02-14T20:38:09.507Z,73.38
2023-02-14T20:43:11.549Z,72.20
2023-02-14T20:48:13.571Z,72.43
2023-02-14T20:53:15.441Z,72.06
2023-02-14T20:58:17.488Z,72.57
2023-02-14T21:03:19.748Z,72.69
2023-02-14T21:08:22.460Z,72.49
2023-02-14T21:13:24.609Z,72.56
2023-02-14T21:18:26.578Z,72.45
2023-02-14T21:23:28.639Z,72.72
2023-02-14T21:28:30.789Z,72.81
2023-02-14T21:33:33.500Z,73.27
2023-02-14T21:38:36.059Z,73.42
2023-02-14T21:43:40.502Z,73.11
2023-02-14T21:49:01.939Z,73.39
2023-02-14T21:54:04.021Z,73.45
2023-02-14T21:59:06.169Z,73.24
2023-02-14T22:04:10.657Z,73.09
2023-02-14T22:09:14.362Z,73.12
2023-02-14T22:14:16.487Z,73.33
2023-02-14T22:19:18.477Z,73.38
2023-02-14T22:24:20.619Z,73.38
2023-02-14T22:29:22.747Z,73.46
2023-02-14T22:34:25.119Z,73.72
2023-02-14T22:39:26.966Z,73.56
2023-02-14T22:44:29.267Z,73.93
2023-02-14T22:49:31.362Z,73.79
2023-02-14T22:54:33.415Z,74.10
2023-02-14T22:59:35.361Z,74.35
2023-02-14T23:04:37.395Z,74.27
2023-02-14T23:09:39.447Z,74.28
2023-02-14T23:14:59.998Z,74.14
2023-02-14T23:20:20.578Z,74.19
2023-02-14T23:25:22.943Z,73.77
2023-02-14T23:30:25.284Z,73.88
2023-02-14T23:35:27.343Z,73.33
2023-02-14T23:40:29.440Z,73.80
2023-02-14T23:45:38.794Z,73.66
2023-02-14T23:50:40.852Z,73.75
2023-02-14T23:55:43.054Z,73.84
